Carman, Illinois
Current Conditions -  °F | °C
As of 6:53 AM on Thursday 23 Oct 2014 (Local Time) from KBRL Reporting Station
Few Clouds Few Clouds  
Wind Chill: 43°   Ceiling: Unl
Heat Index: 48°   Visibility: 10mi
Dew Point: 41°   Wind: 12mph
Humidity: 77%   Direction: 180°S
Pressure: 30.13"   Gusts: NA
Location:  40.74°N, 91.06°W
Report Text: KBRL 231153Z AUTO 18010KT 10SM FEW045 09/05 A3013 RMK AO2 SLP207 T00890050 10094 20061 58005
Loading
Personal Weather Stations






























Interactive Weather Map
Tropical Storm Tracking
New forecast layout! Learn more

10-Day Weather Forecast

Advertisements
Track Severe Weather on mobile